Aracena, Spain
Current Conditions -  °F | °C
As of 1:00 AM on Saturday 20 Dec 2014 (Local Time) from LEZL Reporting Station
Moderate Fog Moderate Fog  
Wind Chill:   Ceiling: 100
Heat Index:   Visibility: 0.09mi
Dew Point:   Wind: 0mph
Humidity: 93%   Direction: NA
Pressure: 30.45"   Gusts: NA
Location:  37.89°N, 6.56°W
Report Text: LEZL 200000Z 00000KT 0150 R27/0350N R09/0225N FG VV001 09/08 Q1031 NOSIG
Loading
Personal Weather Stations






























Interactive Weather Map New forecast layout! Learn more

10-Day Weather Forecast

Advertisements
Track Severe Weather on mobile